Terminal Aerodrome Forecast
Issued by NWS Binghamton, NY

Home | Current Version | Previous Version | Text Only | Print | Product List | Glossary On
Versions: 1 2 3 4 5 6 7 8 9 10 11 12 13 14 15 16
000
FTUS41 KBGM 041131
TAFAVP
TAF
KAVP 041131Z 0412/0512 VRB03KT 5SM -SHRA BR SCT025 OVC040
      TEMPO 0412/0416 1SM SHRA BR OVC025
     FM041700 21005KT P6SM BKN040
     FM050000 VRB03KT P6SM FEW045
     FM050800 VRB03KT 3SM BR SCT012=

USA.gov is the U.S. government's official web portal to all federal, state and local government web resources and services.